createdAt,value
2019-03-01T00:04:09.964Z,31.00
2019-03-01T00:09:27.895Z,31.00
2019-03-01T00:14:39.505Z,30.25
2019-03-01T00:19:55.335Z,30.00
2019-03-01T00:25:07.058Z,31.25
2019-03-01T00:30:15.468Z,30.00
2019-03-01T00:35:22.987Z,29.67
2019-03-01T00:40:38.907Z,31.00
2019-03-01T00:45:45.619Z,31.62
2019-03-01T00:50:54.834Z,30.00
2019-03-01T00:55:59.917Z,30.75
2019-03-01T01:01:04.211Z,28.00
2019-03-01T01:06:10.062Z,29.00
2019-03-01T01:11:15.734Z,28.80
2019-03-01T01:16:24.023Z,29.25
2019-03-01T01:21:28.972Z,29.75
2019-03-01T01:26:38.259Z,31.33
2019-03-01T01:31:47.709Z,31.62
2019-03-01T01:36:54.275Z,33.22
2019-03-01T01:41:59.202Z,34.00
2019-03-01T01:47:07.797Z,31.50
2019-03-01T01:52:13.536Z,32.75
2019-03-01T01:57:22.192Z,33.00
2019-03-01T02:02:33.046Z,33.75
2019-03-01T02:07:36.543Z,33.00
2019-03-01T02:12:43.967Z,32.89
2019-03-01T02:17:50.846Z,32.25
2019-03-01T02:23:01.080Z,30.78
2019-03-01T02:28:09.620Z,29.63
2019-03-01T02:33:18.948Z,31.25
2019-03-01T02:38:28.312Z,33.00
2019-03-01T02:43:35.894Z,32.63
2019-03-01T02:48:46.139Z,31.00
2019-03-01T02:53:55.278Z,31.00
2019-03-01T02:59:01.361Z,29.00
2019-03-01T03:04:11.475Z,31.00
2019-03-01T03:09:20.117Z,31.00
2019-03-01T03:14:27.627Z,31.00
2019-03-01T03:19:32.568Z,32.00
2019-03-01T03:24:40.225Z,30.00
2019-03-01T03:29:44.587Z,31.00
2019-03-01T03:34:53.925Z,30.44
2019-03-01T03:40:08.225Z,33.00
2019-03-01T03:45:15.892Z,33.89
2019-03-01T03:50:22.889Z,30.00
2019-03-01T03:55:31.148Z,31.00
2019-03-01T04:00:39.180Z,31.00
2019-03-01T04:05:44.127Z,32.00
2019-03-01T04:10:53.460Z,34.33
2019-03-01T04:15:57.030Z,31.00
2019-03-01T04:21:05.625Z,30.00
2019-03-01T04:26:12.482Z,32.00
2019-03-01T04:31:22.643Z,33.00
2019-03-01T04:36:32.786Z,33.44
2019-03-01T04:41:37.095Z,34.00
2019-03-01T04:46:41.452Z,31.75
2019-03-01T04:51:49.942Z,30.25
2019-03-01T04:56:54.442Z,31.00
2019-03-01T05:02:01.347Z,31.37
2019-03-01T05:07:12.393Z,32.00
2019-03-01T05:12:16.644Z,32.25
2019-03-01T05:17:25.383Z,33.75
2019-03-01T05:22:29.867Z,34.00
2019-03-01T05:27:37.484Z,31.75
2019-03-01T05:32:45.168Z,32.56
2019-03-01T05:37:49.355Z,31.00
2019-03-01T05:42:56.216Z,33.63
2019-03-01T05:48:05.488Z,33.00
2019-03-01T05:53:10.400Z,34.00
2019-03-01T05:58:20.399Z,33.50
2019-03-01T06:03:47.892Z,34.67
2019-03-01T06:09:02.186Z,34.67
2019-03-01T06:14:25.879Z,37.13
2019-03-01T06:19:35.500Z,35.33
2019-03-01T06:24:54.085Z,37.00
2019-03-01T06:30:09.012Z,32.67
2019-03-01T06:35:18.575Z,36.78
2019-03-01T06:40:32.417Z,33.00
2019-03-01T06:45:49.603Z,33.00
2019-03-01T06:50:55.221Z,32.00
2019-03-01T06:56:06.705Z,34.25
2019-03-01T07:01:13.732Z,32.11
2019-03-01T07:06:21.263Z,30.12
2019-03-01T07:11:28.693Z,32.63
2019-03-01T07:16:38.871Z,27.75
2019-03-01T07:21:43.873Z,30.71
2019-03-01T07:26:50.716Z,30.25
2019-03-01T07:31:59.924Z,28.00
2019-03-01T07:37:04.903Z,32.86
2019-03-01T07:42:08.967Z,32.00
2019-03-01T07:47:13.242Z,31.00
2019-03-01T07:52:17.659Z,31.00
2019-03-01T07:57:26.042Z,31.00
2019-03-01T08:02:39.730Z,29.56
2019-03-01T08:07:55.341Z,30.50
2019-03-01T08:12:55.928Z,31.00
2019-03-01T08:18:08.163Z,30.50
2019-03-01T08:23:14.541Z,29.00
2019-03-01T08:28:22.093Z,30.00
2019-03-01T08:33:29.787Z,30.00
2019-03-01T08:38:39.110Z,28.58
2019-03-01T08:43:48.115Z,26.87
2019-03-01T08:48:55.908Z,30.12
2019-03-01T08:54:00.985Z,28.00
2019-03-01T08:59:08.667Z,31.00
2019-03-01T09:04:17.741Z,30.00
2019-03-01T09:09:25.103Z,28.87
2019-03-01T09:14:34.612Z,26.87
2019-03-01T09:19:43.915Z,30.00
2019-03-01T09:24:47.562Z,30.00
2019-03-01T09:29:56.215Z,28.25
2019-03-01T09:35:08.187Z,27.62
2019-03-01T09:40:16.728Z,27.67
2019-03-01T09:45:35.770Z,30.78
2019-03-01T09:50:38.359Z,29.00
2019-03-01T09:55:46.472Z,29.67
2019-03-01T10:01:01.447Z,31.00
2019-03-01T10:06:12.132Z,31.67
2019-03-01T10:11:18.335Z,28.62
2019-03-01T10:16:25.280Z,32.44
2019-03-01T10:21:31.750Z,28.00
2019-03-01T10:26:39.223Z,28.22
2019-03-01T10:31:46.128Z,26.50
2019-03-01T10:36:53.041Z,31.87
2019-03-01T10:42:01.671Z,30.44
2019-03-01T10:47:05.422Z,31.67
2019-03-01T10:52:12.558Z,28.75
2019-03-01T10:57:16.913Z,29.75
2019-03-01T11:02:23.820Z,29.37
2019-03-01T11:07:33.131Z,28.58
2019-03-01T11:12:39.391Z,29.00
2019-03-01T11:17:46.256Z,30.00
2019-03-01T11:22:49.751Z,30.00
2019-03-01T11:27:55.774Z,29.63
2019-03-01T11:33:04.545Z,28.87
2019-03-01T11:38:08.727Z,32.33
2019-03-01T11:43:15.831Z,30.00
2019-03-01T11:48:23.675Z,29.87
2019-03-01T11:53:27.334Z,30.00
2019-03-01T11:58:35.947Z,28.00
2019-03-01T12:03:45.939Z,30.67
2019-03-01T12:08:54.502Z,30.62
2019-03-01T12:14:03.759Z,31.83
2019-03-01T12:19:08.728Z,33.00
2019-03-01T12:24:18.214Z,31.67
2019-03-01T12:29:26.215Z,29.33
2019-03-01T12:34:33.286Z,32.56
2019-03-01T12:39:42.393Z,30.25
2019-03-01T12:44:52.228Z,31.87
2019-03-01T12:50:01.670Z,32.38
2019-03-01T12:55:14.170Z,33.63
2019-03-01T13:00:22.436Z,29.50
2019-03-01T13:05:29.420Z,32.00
2019-03-01T13:10:40.413Z,32.63
2019-03-01T13:15:49.618Z,38.00
2019-03-01T13:20:54.891Z,33.75
2019-03-01T13:25:58.989Z,32.00
2019-03-01T13:31:02.986Z,33.00
2019-03-01T13:36:06.441Z,34.00
2019-03-01T13:41:12.187Z,42.25
2019-03-01T13:46:22.395Z,37.33
2019-03-01T13:51:30.259Z,34.00
2019-03-01T13:56:39.722Z,35.50
2019-03-01T14:01:43.259Z,34.00
2019-03-01T14:06:51.855Z,36.00
2019-03-01T14:12:00.511Z,34.38
2019-03-01T14:17:09.271Z,34.00
2019-03-01T14:22:18.089Z,38.90
2019-03-01T14:27:30.430Z,38.80
2019-03-01T14:32:41.276Z,32.89
2019-03-01T14:37:53.950Z,34.70
2019-03-01T14:43:03.617Z,37.33
2019-03-01T14:48:09.632Z,39.75
2019-03-01T14:53:19.968Z,39.00
2019-03-01T14:58:31.741Z,43.40
2019-03-01T15:03:42.434Z,41.22
2019-03-01T15:08:53.001Z,38.33
2019-03-01T15:14:04.159Z,44.56
2019-03-01T15:19:12.722Z,37.30
2019-03-01T15:24:21.557Z,44.10
2019-03-01T15:29:32.241Z,34.89
2019-03-01T15:34:36.071Z,37.86
2019-03-01T15:39:45.863Z,40.70
2019-03-01T15:44:56.692Z,43.40
2019-03-01T15:50:02.391Z,43.75
2019-03-01T15:55:11.950Z,42.00
2019-03-01T16:00:25.498Z,42.50
2019-03-01T16:05:38.285Z,41.30
2019-03-01T16:10:46.419Z,36.56
2019-03-01T16:15:53.130Z,42.78
2019-03-01T16:21:01.892Z,44.56
2019-03-01T16:26:10.215Z,41.40
2019-03-01T16:31:21.945Z,47.90
2019-03-01T16:36:33.029Z,44.33
2019-03-01T16:41:43.821Z,45.33
2019-03-01T16:46:50.355Z,49.25
2019-03-01T16:51:55.331Z,48.29
2019-03-01T16:57:06.346Z,45.90
2019-03-01T17:02:11.551Z,45.43
2019-03-01T17:07:15.193Z,43.00
2019-03-01T17:12:26.150Z,44.30
2019-03-01T17:17:36.813Z,43.56
2019-03-01T17:22:43.512Z,44.86
2019-03-01T17:27:49.552Z,49.83
2019-03-01T17:33:02.327Z,55.00
2019-03-01T17:38:10.718Z,56.82
2019-03-01T17:43:15.910Z,52.00
2019-03-01T17:48:25.846Z,49.64
2019-03-01T17:53:36.046Z,38.40
2019-03-01T17:58:40.150Z,30.00
2019-03-01T18:03:45.815Z,24.87
2019-03-01T18:08:54.714Z,24.37
2019-03-01T18:14:03.557Z,25.00
2019-03-01T18:19:10.670Z,25.88
2019-03-01T18:24:15.599Z,24.00
2019-03-01T18:29:21.474Z,27.75
2019-03-01T18:34:26.247Z,28.00
2019-03-01T18:39:30.391Z,21.75
2019-03-01T18:44:34.591Z,30.25
2019-03-01T18:49:40.531Z,23.00
2019-03-01T18:54:50.171Z,23.78
2019-03-01T18:59:56.435Z,24.00
2019-03-01T19:05:04.451Z,23.67
2019-03-01T19:10:10.589Z,22.62
2019-03-01T19:15:15.440Z,26.33
2019-03-01T19:20:26.026Z,22.00
2019-03-01T19:25:30.141Z,24.00
2019-03-01T19:30:37.250Z,23.78
2019-03-01T19:35:46.085Z,23.00
2019-03-01T19:40:55.571Z,26.11
2019-03-01T19:46:04.270Z,30.00
2019-03-01T19:51:13.088Z,26.37
2019-03-01T19:56:18.925Z,24.00
2019-03-01T20:01:25.707Z,26.00
2019-03-01T20:06:33.551Z,25.33
2019-03-01T20:11:42.121Z,28.25
2019-03-01T20:16:50.055Z,24.75
2019-03-01T20:21:57.311Z,26.00
2019-03-01T20:27:04.581Z,28.50
2019-03-01T20:32:15.760Z,26.62
2019-03-01T20:37:24.692Z,26.00
2019-03-01T20:42:33.379Z,28.00
2019-03-01T20:47:38.001Z,26.75
2019-03-01T20:52:46.794Z,25.00
2019-03-01T20:57:49.629Z,28.00
2019-03-01T21:02:56.618Z,26.67
2019-03-01T21:08:04.421Z,27.33
2019-03-01T21:13:13.434Z,29.00
2019-03-01T21:18:18.705Z,28.00
2019-03-01T21:23:22.539Z,31.00
2019-03-01T21:28:26.462Z,26.25
2019-03-01T21:33:37.102Z,27.08
2019-03-01T21:38:45.690Z,27.89
2019-03-01T21:43:55.043Z,28.00
2019-03-01T21:49:03.196Z,28.33
2019-03-01T21:54:12.567Z,29.63
2019-03-01T21:59:20.171Z,27.00
2019-03-01T22:04:28.844Z,30.00
2019-03-01T22:09:35.845Z,28.62
2019-03-01T22:14:45.742Z,30.89
2019-03-01T22:19:53.187Z,28.11
2019-03-01T22:25:02.319Z,28.67
2019-03-01T22:30:13.186Z,33.11
2019-03-01T22:35:20.113Z,32.63
2019-03-01T22:40:29.810Z,30.78
2019-03-01T22:45:38.005Z,28.00
2019-03-01T22:50:46.941Z,26.62
2019-03-01T22:55:56.689Z,26.44
2019-03-01T23:01:02.809Z,22.00
2019-03-01T23:06:07.082Z,26.75
2019-03-01T23:11:16.975Z,27.37
2019-03-01T23:16:21.626Z,27.00
2019-03-01T23:21:32.579Z,24.75
2019-03-01T23:26:35.606Z,23.25
2019-03-01T23:31:39.740Z,27.75
2019-03-01T23:36:47.587Z,26.25
2019-03-01T23:41:51.570Z,28.00
2019-03-01T23:46:59.541Z,26.25
2019-03-01T23:52:08.470Z,27.00
2019-03-01T23:57:18.314Z,24.37
